Santa Monica, CA

01:03 PM PST die 21o February, anno 2018 (GMT -0800)
Santa Monica Municipal | | Change Station

Elev 174 ft 34.02 °N, 118.45 °W | Updated 12 minutes ago

Serena
Serena
57 °F
Feels Like 57 °F
N
13
Ventus Variabilis Ventus from Magis Zephyrus quam Auster
Gusts 20 mph

Hodie
High -- | Low -- °F
--% Chance of Precip.
Yesterday
High -- | Low -- °F
Precip. -- in
Pressio 30.12 in
Visibilitas 10.0 milia passuum
Clouds Few 7500 ft
Frigus in quo Ros apparet 31 °F
Umor 37%
Rainfall 0.00 in
Snow Depth Not available.
6:31 AM 5:43 PM
Waxing Crescent, 34% visible
METAR KSMO 212051Z 24011G17KT 10SM FEW075 14/M01 A3012 RMK AO2 SLP199 T01391006 58011
Pressio 30.12 in
Visibilitas 10.0 milia passuum
Clouds Few 7500 ft
Frigus in quo Ros apparet 31 °F
Umor 37%
Rainfall 0.00 in
Snow Depth Not available.
6:31 AM 5:43 PM
Waxing Crescent, 34% visible
METAR KSMO 212051Z 24011G17KT 10SM FEW075 14/M01 A3012 RMK AO2 SLP199 T01391006 58011

Get Severe Weather Alerts

Thanks for signing up!

Be on the lookout for a verification email in your inbox.

You'll start receiving the daily forecast at 6 AM.

×

10-Day Weather Forecast

Almanac

Astronomy

Feb. 21, 2018 Rise Set
Actual Time
Civil Twilight
Nautical Twilight
Astronomical Twilight
Moon
Length Of Visible Light
Length of Day
Tomorrow will be .
, % of the Moon is Illuminated

Today's Extremes

State Highs State Lows

Community

WunderPhotos

Category 6

Welcome to Category 6. This is the collective home for Weather Underground's featured writeups by Dr. Jeff Masters (right), Bob Henson (left), Chris Burt, and other regular contributors.

Nearby

Air Quality

  Air Quality AQ Index Pollutant
Not available.

Snow Depth

Station Depth Elevation

Earthquake Activity

City Distance Mag. Time & Date
Minimum magnitude displayed is 2.5.

Coastal Water Temperatures

Locus Calor

Stations

Nearby Weather Stations

Station Location Temp Frigus Venti Frigus in quo Ros apparet Umor Ventus Precip. Elev Renovata Type
                   

Watches & Warnings

There are currently no watches in effect.